sensor_id;sensor_type;location;lat;lon;timestamp;temperature;humidity
12957;DHT22;6543;48.836;10.092;2023-02-04T00:02:23;6.90;99.90
12957;DHT22;6543;48.836;10.092;2023-02-04T00:04:50;6.90;99.90
12957;DHT22;6543;48.836;10.092;2023-02-04T00:07:18;6.90;99.90
12957;DHT22;6543;48.836;10.092;2023-02-04T00:09:45;6.90;99.90
12957;DHT22;6543;48.836;10.092;2023-02-04T00:12:12;6.80;99.90
12957;DHT22;6543;48.836;10.092;2023-02-04T00:14:39;6.80;99.90
12957;DHT22;6543;48.836;10.092;2023-02-04T00:17:06;6.80;99.90
12957;DHT22;6543;48.836;10.092;2023-02-04T00:19:35;6.70;99.90
12957;DHT22;6543;48.836;10.092;2023-02-04T00:22:02;6.70;99.90
12957;DHT22;6543;48.836;10.092;2023-02-04T00:24:30;6.70;99.90
12957;DHT22;6543;48.836;10.092;2023-02-04T00:26:57;6.70;99.90
12957;DHT22;6543;48.836;10.092;2023-02-04T00:29:24;6.70;99.90
12957;DHT22;6543;48.836;10.092;2023-02-04T00:31:51;6.70;99.90
12957;DHT22;6543;48.836;10.092;2023-02-04T00:34:17;6.70;99.90
12957;DHT22;6543;48.836;10.092;2023-02-04T00:36:44;6.60;99.90
12957;DHT22;6543;48.836;10.092;2023-02-04T00:39:12;6.70;99.90
12957;DHT22;6543;48.836;10.092;2023-02-04T00:41:40;6.70;99.90
12957;DHT22;6543;48.836;10.092;2023-02-04T00:44:07;6.60;99.90
12957;DHT22;6543;48.836;10.092;2023-02-04T00:46:33;6.60;99.90
12957;DHT22;6543;48.836;10.092;2023-02-04T00:49:00;6.60;99.90
12957;DHT22;6543;48.836;10.092;2023-02-04T00:51:27;6.60;99.90
12957;DHT22;6543;48.836;10.092;2023-02-04T00:53:54;6.60;99.90
12957;DHT22;6543;48.836;10.092;2023-02-04T00:56:21;6.60;99.90
12957;DHT22;6543;48.836;10.092;2023-02-04T00:58:49;6.60;99.90
12957;DHT22;6543;48.836;10.092;2023-02-04T01:01:16;6.60;99.90
12957;DHT22;6543;48.836;10.092;2023-02-04T01:03:43;6.60;99.90
12957;DHT22;6543;48.836;10.092;2023-02-04T01:06:10;6.60;99.90
12957;DHT22;6543;48.836;10.092;2023-02-04T01:08:37;6.60;99.90
12957;DHT22;6543;48.836;10.092;2023-02-04T01:11:04;6.60;99.90
12957;DHT22;6543;48.836;10.092;2023-02-04T01:13:31;6.50;99.90
12957;DHT22;6543;48.836;10.092;2023-02-04T01:15:59;6.50;99.90
12957;DHT22;6543;48.836;10.092;2023-02-04T01:18:26;6.60;99.90
12957;DHT22;6543;48.836;10.092;2023-02-04T01:20:53;6.50;99.90
12957;DHT22;6543;48.836;10.092;2023-02-04T01:23:19;6.50;99.90
12957;DHT22;6543;48.836;10.092;2023-02-04T01:25:46;6.60;99.90
12957;DHT22;6543;48.836;10.092;2023-02-04T01:28:13;6.60;99.90
12957;DHT22;6543;48.836;10.092;2023-02-04T01:30:40;6.50;99.90
12957;DHT22;6543;48.836;10.092;2023-02-04T01:33:08;6.50;99.90
12957;DHT22;6543;48.836;10.092;2023-02-04T01:35:35;6.50;99.90
12957;DHT22;6543;48.836;10.092;2023-02-04T01:38:02;6.40;99.90
12957;DHT22;6543;48.836;10.092;2023-02-04T01:40:29;6.40;99.90
12957;DHT22;6543;48.836;10.092;2023-02-04T01:42:56;6.40;99.90
12957;DHT22;6543;48.836;10.092;2023-02-04T01:45:23;6.40;99.90
12957;DHT22;6543;48.836;10.092;2023-02-04T01:47:50;6.40;99.90
12957;DHT22;6543;48.836;10.092;2023-02-04T01:50:18;6.30;99.90
12957;DHT22;6543;48.836;10.092;2023-02-04T01:52:46;6.30;99.90
12957;DHT22;6543;48.836;10.092;2023-02-04T01:55:15;6.20;99.90
12957;DHT22;6543;48.836;10.092;2023-02-04T01:57:42;5.10;99.90
12957;DHT22;6543;48.836;10.092;2023-02-04T02:00:15;6.20;99.90
12957;DHT22;6543;48.836;10.092;2023-02-04T02:02:44;6.20;99.90
12957;DHT22;6543;48.836;10.092;2023-02-04T02:05:14;6.10;99.90
12957;DHT22;6543;48.836;10.092;2023-02-04T02:07:43;6.00;99.90
12957;DHT22;6543;48.836;10.092;2023-02-04T02:10:12;5.90;99.90
12957;DHT22;6543;48.836;10.092;2023-02-04T02:12:40;5.90;99.90
12957;DHT22;6543;48.836;10.092;2023-02-04T02:15:09;5.90;99.90
12957;DHT22;6543;48.836;10.092;2023-02-04T02:17:36;5.90;99.90
12957;DHT22;6543;48.836;10.092;2023-02-04T02:20:05;5.90;99.90
12957;DHT22;6543;48.836;10.092;2023-02-04T02:22:36;5.80;99.90
12957;DHT22;6543;48.836;10.092;2023-02-04T02:25:09;5.70;99.90
12957;DHT22;6543;48.836;10.092;2023-02-04T02:27:36;5.70;99.90
12957;DHT22;6543;48.836;10.092;2023-02-04T02:30:04;5.70;99.90
12957;DHT22;6543;48.836;10.092;2023-02-04T02:32:31;5.60;99.90
12957;DHT22;6543;48.836;10.092;2023-02-04T02:34:58;5.50;99.90
12957;DHT22;6543;48.836;10.092;2023-02-04T02:37:25;5.60;99.90
12957;DHT22;6543;48.836;10.092;2023-02-04T02:39:52;5.60;99.90
12957;DHT22;6543;48.836;10.092;2023-02-04T02:42:20;5.60;99.90
12957;DHT22;6543;48.836;10.092;2023-02-04T02:44:48;5.60;99.90
12957;DHT22;6543;48.836;10.092;2023-02-04T02:47:17;5.70;99.90
12957;DHT22;6543;48.836;10.092;2023-02-04T02:49:47;5.60;99.90
12957;DHT22;6543;48.836;10.092;2023-02-04T02:52:14;5.50;99.90
12957;DHT22;6543;48.836;10.092;2023-02-04T02:54:41;5.40;99.90
12957;DHT22;6543;48.836;10.092;2023-02-04T02:57:12;5.40;99.90
12957;DHT22;6543;48.836;10.092;2023-02-04T02:59:41;5.40;99.90
12957;DHT22;6543;48.836;10.092;2023-02-04T03:02:10;5.40;99.90
12957;DHT22;6543;48.836;10.092;2023-02-04T03:04:43;5.40;99.90
12957;DHT22;6543;48.836;10.092;2023-02-04T03:07:11;5.40;99.90
12957;DHT22;6543;48.836;10.092;2023-02-04T03:09:39;5.40;99.90
12957;DHT22;6543;48.836;10.092;2023-02-04T03:12:06;5.40;99.90
12957;DHT22;6543;48.836;10.092;2023-02-04T03:14:34;5.40;99.90
12957;DHT22;6543;48.836;10.092;2023-02-04T03:17:06;5.50;99.90
12957;DHT22;6543;48.836;10.092;2023-02-04T03:19:34;5.40;99.90
12957;DHT22;6543;48.836;10.092;2023-02-04T03:22:02;5.40;99.90
12957;DHT22;6543;48.836;10.092;2023-02-04T03:24:29;5.40;99.90
12957;DHT22;6543;48.836;10.092;2023-02-04T03:26:57;5.30;99.90
12957;DHT22;6543;48.836;10.092;2023-02-04T03:29:23;5.30;99.90
12957;DHT22;6543;48.836;10.092;2023-02-04T03:31:50;5.30;99.90
12957;DHT22;6543;48.836;10.092;2023-02-04T03:34:21;5.30;99.90
12957;DHT22;6543;48.836;10.092;2023-02-04T03:36:48;5.30;99.90
12957;DHT22;6543;48.836;10.092;2023-02-04T03:39:15;5.30;99.90
12957;DHT22;6543;48.836;10.092;2023-02-04T03:41:42;5.30;99.90
12957;DHT22;6543;48.836;10.092;2023-02-04T03:44:08;5.30;99.90
12957;DHT22;6543;48.836;10.092;2023-02-04T03:46:35;5.20;99.90
12957;DHT22;6543;48.836;10.092;2023-02-04T03:49:02;5.10;99.90
12957;DHT22;6543;48.836;10.092;2023-02-04T03:51:30;5.10;99.90
12957;DHT22;6543;48.836;10.092;2023-02-04T03:53:57;5.10;99.90
12957;DHT22;6543;48.836;10.092;2023-02-04T03:56:24;5.10;99.90
12957;DHT22;6543;48.836;10.092;2023-02-04T03:58:51;5.00;99.90
12957;DHT22;6543;48.836;10.092;2023-02-04T04:01:18;5.10;99.90
12957;DHT22;6543;48.836;10.092;2023-02-04T04:03:44;5.00;99.90
12957;DHT22;6543;48.836;10.092;2023-02-04T04:06:11;5.00;99.90
12957;DHT22;6543;48.836;10.092;2023-02-04T04:08:39;5.00;99.90
12957;DHT22;6543;48.836;10.092;2023-02-04T04:11:06;5.00;99.90
12957;DHT22;6543;48.836;10.092;2023-02-04T04:13:33;4.90;99.90
12957;DHT22;6543;48.836;10.092;2023-02-04T04:16:00;4.90;99.90
12957;DHT22;6543;48.836;10.092;2023-02-04T04:18:27;4.80;99.90
12957;DHT22;6543;48.836;10.092;2023-02-04T04:20:54;4.80;99.90
12957;DHT22;6543;48.836;10.092;2023-02-04T04:23:21;4.70;99.90
12957;DHT22;6543;48.836;10.092;2023-02-04T04:25:49;4.80;99.90
12957;DHT22;6543;48.836;10.092;2023-02-04T04:28:17;4.70;99.90
12957;DHT22;6543;48.836;10.092;2023-02-04T04:30:44;4.70;99.90
12957;DHT22;6543;48.836;10.092;2023-02-04T04:33:11;4.60;99.90
12957;DHT22;6543;48.836;10.092;2023-02-04T04:35:37;4.60;99.90
12957;DHT22;6543;48.836;10.092;2023-02-04T04:38:04;4.60;99.90
12957;DHT22;6543;48.836;10.092;2023-02-04T04:40:31;4.60;99.90
12957;DHT22;6543;48.836;10.092;2023-02-04T04:42:59;4.70;99.90
12957;DHT22;6543;48.836;10.092;2023-02-04T04:45:26;4.70;99.90
12957;DHT22;6543;48.836;10.092;2023-02-04T04:47:53;4.70;99.90
12957;DHT22;6543;48.836;10.092;2023-02-04T04:50:20;4.60;99.90
12957;DHT22;6543;48.836;10.092;2023-02-04T04:52:47;4.60;99.90
12957;DHT22;6543;48.836;10.092;2023-02-04T04:55:14;4.60;99.90
12957;DHT22;6543;48.836;10.092;2023-02-04T04:57:41;4.60;99.90
12957;DHT22;6543;48.836;10.092;2023-02-04T05:00:14;4.60;99.90
12957;DHT22;6543;48.836;10.092;2023-02-04T05:02:42;4.70;99.90
12957;DHT22;6543;48.836;10.092;2023-02-04T05:05:09;4.70;99.90
12957;DHT22;6543;48.836;10.092;2023-02-04T05:07:36;4.70;99.90
12957;DHT22;6543;48.836;10.092;2023-02-04T05:10:03;4.70;99.90
12957;DHT22;6543;48.836;10.092;2023-02-04T05:12:30;4.70;99.90
12957;DHT22;6543;48.836;10.092;2023-02-04T05:14:57;4.60;99.90
12957;DHT22;6543;48.836;10.092;2023-02-04T05:17:25;4.70;99.90
12957;DHT22;6543;48.836;10.092;2023-02-04T05:19:52;4.60;99.90
12957;DHT22;6543;48.836;10.092;2023-02-04T05:22:19;4.70;99.90
12957;DHT22;6543;48.836;10.092;2023-02-04T05:24:46;4.60;99.90
12957;DHT22;6543;48.836;10.092;2023-02-04T05:27:12;4.50;99.90
12957;DHT22;6543;48.836;10.092;2023-02-04T05:29:39;4.50;99.90
12957;DHT22;6543;48.836;10.092;2023-02-04T05:32:06;4.40;99.90
12957;DHT22;6543;48.836;10.092;2023-02-04T05:34:34;4.40;99.90
12957;DHT22;6543;48.836;10.092;2023-02-04T05:37:01;4.20;99.90
12957;DHT22;6543;48.836;10.092;2023-02-04T05:39:28;4.10;99.90
12957;DHT22;6543;48.836;10.092;2023-02-04T05:41:55;4.10;99.90
12957;DHT22;6543;48.836;10.092;2023-02-04T05:44:22;4.10;99.90
12957;DHT22;6543;48.836;10.092;2023-02-04T05:46:48;4.00;99.90
12957;DHT22;6543;48.836;10.092;2023-02-04T05:49:15;3.90;99.90
12957;DHT22;6543;48.836;10.092;2023-02-04T05:51:43;3.80;99.90
12957;DHT22;6543;48.836;10.092;2023-02-04T05:54:10;3.80;99.90
12957;DHT22;6543;48.836;10.092;2023-02-04T05:56:44;3.90;99.90
12957;DHT22;6543;48.836;10.092;2023-02-04T05:59:11;3.80;99.90
12957;DHT22;6543;48.836;10.092;2023-02-04T06:01:38;3.80;99.90
12957;DHT22;6543;48.836;10.092;2023-02-04T06:04:05;3.70;99.90
12957;DHT22;6543;48.836;10.092;2023-02-04T06:06:31;3.70;99.90
12957;DHT22;6543;48.836;10.092;2023-02-04T06:09:00;3.70;99.90
12957;DHT22;6543;48.836;10.092;2023-02-04T06:11:27;3.70;99.90
12957;DHT22;6543;48.836;10.092;2023-02-04T06:13:53;3.70;99.90
12957;DHT22;6543;48.836;10.092;2023-02-04T06:16:20;3.70;99.90
12957;DHT22;6543;48.836;10.092;2023-02-04T06:18:47;3.70;99.90
12957;DHT22;6543;48.836;10.092;2023-02-04T06:21:14;3.60;99.90
12957;DHT22;6543;48.836;10.092;2023-02-04T06:23:41;3.60;99.90
12957;DHT22;6543;48.836;10.092;2023-02-04T06:26:09;3.60;99.90
12957;DHT22;6543;48.836;10.092;2023-02-04T06:28:36;3.60;99.90
12957;DHT22;6543;48.836;10.092;2023-02-04T06:31:04;3.60;99.90
12957;DHT22;6543;48.836;10.092;2023-02-04T06:33:30;3.60;99.90
12957;DHT22;6543;48.836;10.092;2023-02-04T06:35:57;3.70;99.90
12957;DHT22;6543;48.836;10.092;2023-02-04T06:38:24;3.70;99.90
12957;DHT22;6543;48.836;10.092;2023-02-04T06:40:51;3.70;99.90
12957;DHT22;6543;48.836;10.092;2023-02-04T06:43:20;3.70;99.90
12957;DHT22;6543;48.836;10.092;2023-02-04T06:45:49;3.70;99.90
12957;DHT22;6543;48.836;10.092;2023-02-04T06:48:17;3.80;99.90
12957;DHT22;6543;48.836;10.092;2023-02-04T06:50:44;3.80;99.90
12957;DHT22;6543;48.836;10.092;2023-02-04T06:53:11;3.80;99.90
12957;DHT22;6543;48.836;10.092;2023-02-04T06:55:38;3.80;99.90
12957;DHT22;6543;48.836;10.092;2023-02-04T06:58:05;3.70;99.90
12957;DHT22;6543;48.836;10.092;2023-02-04T07:00:33;3.70;99.90
12957;DHT22;6543;48.836;10.092;2023-02-04T07:03:00;3.70;99.90
12957;DHT22;6543;48.836;10.092;2023-02-04T07:05:27;3.70;99.90
12957;DHT22;6543;48.836;10.092;2023-02-04T07:07:53;3.70;99.90
12957;DHT22;6543;48.836;10.092;2023-02-04T07:10:20;3.70;99.90
12957;DHT22;6543;48.836;10.092;2023-02-04T07:12:47;3.60;99.90
12957;DHT22;6543;48.836;10.092;2023-02-04T07:15:14;3.70;99.90
12957;DHT22;6543;48.836;10.092;2023-02-04T07:17:43;3.60;99.90
12957;DHT22;6543;48.836;10.092;2023-02-04T07:20:10;3.60;99.90
12957;DHT22;6543;48.836;10.092;2023-02-04T07:22:37;3.60;99.90
12957;DHT22;6543;48.836;10.092;2023-02-04T07:25:05;3.70;99.90
12957;DHT22;6543;48.836;10.092;2023-02-04T07:27:32;3.70;99.90
12957;DHT22;6543;48.836;10.092;2023-02-04T07:29:58;3.70;99.90
12957;DHT22;6543;48.836;10.092;2023-02-04T07:32:25;3.80;99.90
12957;DHT22;6543;48.836;10.092;2023-02-04T07:34:58;3.80;99.90
12957;DHT22;6543;48.836;10.092;2023-02-04T07:37:25;3.90;99.90
12957;DHT22;6543;48.836;10.092;2023-02-04T07:39:52;4.00;99.90
12957;DHT22;6543;48.836;10.092;2023-02-04T07:42:19;4.10;99.90
12957;DHT22;6543;48.836;10.092;2023-02-04T07:44:46;4.20;99.90
12957;DHT22;6543;48.836;10.092;2023-02-04T07:47:13;4.20;99.90
12957;DHT22;6543;48.836;10.092;2023-02-04T07:49:40;4.30;99.90
12957;DHT22;6543;48.836;10.092;2023-02-04T07:52:08;4.30;99.90
12957;DHT22;6543;48.836;10.092;2023-02-04T07:54:35;4.30;99.90
12957;DHT22;6543;48.836;10.092;2023-02-04T07:57:02;4.30;99.90
12957;DHT22;6543;48.836;10.092;2023-02-04T07:59:29;4.30;99.90
12957;DHT22;6543;48.836;10.092;2023-02-04T08:01:56;4.40;99.90
12957;DHT22;6543;48.836;10.092;2023-02-04T08:04:22;4.50;99.90
12957;DHT22;6543;48.836;10.092;2023-02-04T08:06:49;4.50;99.90
12957;DHT22;6543;48.836;10.092;2023-02-04T08:09:17;3.50;99.90
12957;DHT22;6543;48.836;10.092;2023-02-04T08:11:44;4.60;99.90
12957;DHT22;6543;48.836;10.092;2023-02-04T08:14:11;4.60;99.90
12957;DHT22;6543;48.836;10.092;2023-02-04T08:16:38;4.70;99.90
12957;DHT22;6543;48.836;10.092;2023-02-04T08:19:05;4.60;99.90
12957;DHT22;6543;48.836;10.092;2023-02-04T08:21:32;4.70;99.90
12957;DHT22;6543;48.836;10.092;2023-02-04T08:23:59;4.80;99.90
12957;DHT22;6543;48.836;10.092;2023-02-04T08:26:27;4.90;99.90
12957;DHT22;6543;48.836;10.092;2023-02-04T08:28:54;4.90;99.90
12957;DHT22;6543;48.836;10.092;2023-02-04T08:31:21;5.00;99.90
12957;DHT22;6543;48.836;10.092;2023-02-04T08:33:47;5.00;99.90
12957;DHT22;6543;48.836;10.092;2023-02-04T08:36:14;5.00;99.90
12957;DHT22;6543;48.836;10.092;2023-02-04T08:38:41;5.00;99.90
12957;DHT22;6543;48.836;10.092;2023-02-04T08:41:09;5.10;99.90
12957;DHT22;6543;48.836;10.092;2023-02-04T08:43:37;5.00;99.90
12957;DHT22;6543;48.836;10.092;2023-02-04T08:46:04;5.00;99.90
12957;DHT22;6543;48.836;10.092;2023-02-04T08:48:31;5.00;99.90
12957;DHT22;6543;48.836;10.092;2023-02-04T08:50:58;5.10;99.90
12957;DHT22;6543;48.836;10.092;2023-02-04T08:53:28;5.10;99.90
12957;DHT22;6543;48.836;10.092;2023-02-04T08:55:54;5.10;99.90
12957;DHT22;6543;48.836;10.092;2023-02-04T08:58:21;5.10;99.90
12957;DHT22;6543;48.836;10.092;2023-02-04T09:00:50;5.10;99.90
12957;DHT22;6543;48.836;10.092;2023-02-04T09:05:55;5.10;99.90
12957;DHT22;6543;48.836;10.092;2023-02-04T09:08:22;5.10;99.90
12957;DHT22;6543;48.836;10.092;2023-02-04T09:10:49;5.10;99.90
12957;DHT22;6543;48.836;10.092;2023-02-04T09:13:17;5.20;99.90
12957;DHT22;6543;48.836;10.092;2023-02-04T09:15:44;5.40;99.90
12957;DHT22;6543;48.836;10.092;2023-02-04T09:18:12;5.40;99.90
12957;DHT22;6543;48.836;10.092;2023-02-04T09:20:41;5.30;99.90
12957;DHT22;6543;48.836;10.092;2023-02-04T09:23:08;5.40;99.90
12957;DHT22;6543;48.836;10.092;2023-02-04T09:25:37;5.40;99.90
12957;DHT22;6543;48.836;10.092;2023-02-04T09:28:04;5.40;99.90
12957;DHT22;6543;48.836;10.092;2023-02-04T09:30:31;5.50;99.90
12957;DHT22;6543;48.836;10.092;2023-02-04T09:32:58;5.70;99.90
12957;DHT22;6543;48.836;10.092;2023-02-04T09:35:26;5.70;99.90
12957;DHT22;6543;48.836;10.092;2023-02-04T09:37:53;6.00;99.90
12957;DHT22;6543;48.836;10.092;2023-02-04T09:40:22;6.00;99.90
12957;DHT22;6543;48.836;10.092;2023-02-04T09:42:53;5.90;99.90
12957;DHT22;6543;48.836;10.092;2023-02-04T09:45:23;5.90;99.90
12957;DHT22;6543;48.836;10.092;2023-02-04T09:47:52;5.90;99.90
12957;DHT22;6543;48.836;10.092;2023-02-04T09:50:20;5.90;99.90
12957;DHT22;6543;48.836;10.092;2023-02-04T09:52:52;6.00;99.90
12957;DHT22;6543;48.836;10.092;2023-02-04T09:55:27;5.90;99.90
12957;DHT22;6543;48.836;10.092;2023-02-04T09:57:54;5.70;99.90
12957;DHT22;6543;48.836;10.092;2023-02-04T10:00:23;5.60;99.90
12957;DHT22;6543;48.836;10.092;2023-02-04T10:02:51;5.50;99.90
12957;DHT22;6543;48.836;10.092;2023-02-04T10:05:20;5.60;99.90
12957;DHT22;6543;48.836;10.092;2023-02-04T10:07:51;5.70;99.90
12957;DHT22;6543;48.836;10.092;2023-02-04T10:10:19;5.80;99.90
12957;DHT22;6543;48.836;10.092;2023-02-04T10:12:51;5.70;99.90
12957;DHT22;6543;48.836;10.092;2023-02-04T10:15:19;5.70;99.90
12957;DHT22;6543;48.836;10.092;2023-02-04T10:17:48;5.70;99.90
12957;DHT22;6543;48.836;10.092;2023-02-04T10:20:17;5.70;99.90
12957;DHT22;6543;48.836;10.092;2023-02-04T10:22:44;5.90;99.90
12957;DHT22;6543;48.836;10.092;2023-02-04T10:25:15;5.70;99.90
12957;DHT22;6543;48.836;10.092;2023-02-04T10:27:49;5.50;99.90
12957;DHT22;6543;48.836;10.092;2023-02-04T10:30:19;5.50;99.90
12957;DHT22;6543;48.836;10.092;2023-02-04T10:32:46;5.70;99.90
12957;DHT22;6543;48.836;10.092;2023-02-04T10:35:15;5.70;99.90
12957;DHT22;6543;48.836;10.092;2023-02-04T10:37:43;5.60;99.90
12957;DHT22;6543;48.836;10.092;2023-02-04T10:40:27;5.70;99.90
12957;DHT22;6543;48.836;10.092;2023-02-04T10:42:54;5.80;99.90
12957;DHT22;6543;48.836;10.092;2023-02-04T10:45:23;5.80;99.90
12957;DHT22;6543;48.836;10.092;2023-02-04T10:47:51;5.80;99.90
12957;DHT22;6543;48.836;10.092;2023-02-04T10:50:19;5.80;99.90
12957;DHT22;6543;48.836;10.092;2023-02-04T10:52:50;5.80;99.90
12957;DHT22;6543;48.836;10.092;2023-02-04T10:55:21;5.70;99.90
12957;DHT22;6543;48.836;10.092;2023-02-04T10:57:50;5.80;99.90
12957;DHT22;6543;48.836;10.092;2023-02-04T11:00:19;5.80;99.90
12957;DHT22;6543;48.836;10.092;2023-02-04T11:02:53;6.00;99.90
12957;DHT22;6543;48.836;10.092;2023-02-04T11:05:24;6.20;99.90
12957;DHT22;6543;48.836;10.092;2023-02-04T11:07:54;6.40;99.90
12957;DHT22;6543;48.836;10.092;2023-02-04T11:10:23;6.40;99.90
12957;DHT22;6543;48.836;10.092;2023-02-04T11:13:03;6.60;99.90
12957;DHT22;6543;48.836;10.092;2023-02-04T11:15:42;6.70;99.90
12957;DHT22;6543;48.836;10.092;2023-02-04T11:18:11;6.80;99.90
12957;DHT22;6543;48.836;10.092;2023-02-04T11:20:39;6.80;99.90
12957;DHT22;6543;48.836;10.092;2023-02-04T11:23:15;6.60;99.90
12957;DHT22;6543;48.836;10.092;2023-02-04T11:25:42;6.50;99.90
12957;DHT22;6543;48.836;10.092;2023-02-04T11:28:14;6.50;99.90
12957;DHT22;6543;48.836;10.092;2023-02-04T11:30:42;6.50;99.90
12957;DHT22;6543;48.836;10.092;2023-02-04T11:33:22;6.30;99.90
12957;DHT22;6543;48.836;10.092;2023-02-04T11:36:02;5.90;99.90
12957;DHT22;6543;48.836;10.092;2023-02-04T11:38:30;5.40;99.90
12957;DHT22;6543;48.836;10.092;2023-02-04T11:40:58;5.50;99.90
12957;DHT22;6543;48.836;10.092;2023-02-04T11:43:27;5.40;99.90
12957;DHT22;6543;48.836;10.092;2023-02-04T11:46:04;5.40;99.90
12957;DHT22;6543;48.836;10.092;2023-02-04T11:48:31;5.30;99.90
12957;DHT22;6543;48.836;10.092;2023-02-04T11:51:02;5.40;99.90
12957;DHT22;6543;48.836;10.092;2023-02-04T11:53:31;5.40;99.90
12957;DHT22;6543;48.836;10.092;2023-02-04T11:55:59;5.40;99.90
12957;DHT22;6543;48.836;10.092;2023-02-04T11:58:28;5.40;99.90
12957;DHT22;6543;48.836;10.092;2023-02-04T12:00:56;5.50;99.90
12957;DHT22;6543;48.836;10.092;2023-02-04T12:03:25;5.50;99.90
12957;DHT22;6543;48.836;10.092;2023-02-04T12:05:54;5.50;99.90
12957;DHT22;6543;48.836;10.092;2023-02-04T12:08:26;5.50;99.90
12957;DHT22;6543;48.836;10.092;2023-02-04T12:11:01;5.40;99.90
12957;DHT22;6543;48.836;10.092;2023-02-04T12:13:30;5.30;99.90
12957;DHT22;6543;48.836;10.092;2023-02-04T12:15:59;5.50;99.90
12957;DHT22;6543;48.836;10.092;2023-02-04T12:18:27;5.30;99.90
12957;DHT22;6543;48.836;10.092;2023-02-04T12:20:55;5.40;99.90
12957;DHT22;6543;48.836;10.092;2023-02-04T12:23:22;5.60;99.90
12957;DHT22;6543;48.836;10.092;2023-02-04T12:25:49;5.60;99.90
12957;DHT22;6543;48.836;10.092;2023-02-04T12:28:16;5.30;99.90
12957;DHT22;6543;48.836;10.092;2023-02-04T12:30:45;5.50;99.90
12957;DHT22;6543;48.836;10.092;2023-02-04T12:33:12;5.50;99.90
12957;DHT22;6543;48.836;10.092;2023-02-04T12:35:39;5.60;99.90
12957;DHT22;6543;48.836;10.092;2023-02-04T12:38:06;5.90;99.90
12957;DHT22;6543;48.836;10.092;2023-02-04T12:40:33;5.90;99.90
12957;DHT22;6543;48.836;10.092;2023-02-04T12:43:00;5.90;99.90
12957;DHT22;6543;48.836;10.092;2023-02-04T12:45:27;5.70;99.90
12957;DHT22;6543;48.836;10.092;2023-02-04T12:47:55;5.60;99.90
12957;DHT22;6543;48.836;10.092;2023-02-04T12:50:22;5.60;99.90
12957;DHT22;6543;48.836;10.092;2023-02-04T12:52:49;5.70;99.90
12957;DHT22;6543;48.836;10.092;2023-02-04T12:55:17;5.80;99.90
12957;DHT22;6543;48.836;10.092;2023-02-04T12:57:44;5.70;99.90
12957;DHT22;6543;48.836;10.092;2023-02-04T13:00:11;5.60;99.90
12957;DHT22;6543;48.836;10.092;2023-02-04T13:02:38;5.70;99.90
12957;DHT22;6543;48.836;10.092;2023-02-04T13:05:07;5.80;99.90
12957;DHT22;6543;48.836;10.092;2023-02-04T13:07:34;5.80;99.90
12957;DHT22;6543;48.836;10.092;2023-02-04T13:10:02;6.00;99.90
12957;DHT22;6543;48.836;10.092;2023-02-04T13:12:29;5.90;99.90
12957;DHT22;6543;48.836;10.092;2023-02-04T13:14:56;5.90;99.90
12957;DHT22;6543;48.836;10.092;2023-02-04T13:17:23;5.90;99.90
12957;DHT22;6543;48.836;10.092;2023-02-04T13:19:49;6.00;99.90
12957;DHT22;6543;48.836;10.092;2023-02-04T13:22:18;6.00;99.90
12957;DHT22;6543;48.836;10.092;2023-02-04T13:24:44;6.00;99.90
12957;DHT22;6543;48.836;10.092;2023-02-04T13:27:11;6.00;99.90
12957;DHT22;6543;48.836;10.092;2023-02-04T13:29:39;6.10;99.90
12957;DHT22;6543;48.836;10.092;2023-02-04T13:32:06;6.30;99.90
12957;DHT22;6543;48.836;10.092;2023-02-04T13:34:34;6.40;99.90
12957;DHT22;6543;48.836;10.092;2023-02-04T13:37:01;6.30;99.90
12957;DHT22;6543;48.836;10.092;2023-02-04T13:39:29;6.30;99.90
12957;DHT22;6543;48.836;10.092;2023-02-04T13:41:56;6.30;99.90
12957;DHT22;6543;48.836;10.092;2023-02-04T13:44:23;6.40;99.90
12957;DHT22;6543;48.836;10.092;2023-02-04T13:46:49;6.00;99.90
12957;DHT22;6543;48.836;10.092;2023-02-04T13:49:17;6.00;99.90
12957;DHT22;6543;48.836;10.092;2023-02-04T13:51:44;6.00;99.90
12957;DHT22;6543;48.836;10.092;2023-02-04T13:54:15;6.00;99.90
12957;DHT22;6543;48.836;10.092;2023-02-04T13:56:47;5.80;99.90
12957;DHT22;6543;48.836;10.092;2023-02-04T13:59:17;6.00;99.90
12957;DHT22;6543;48.836;10.092;2023-02-04T14:01:44;6.10;99.90
12957;DHT22;6543;48.836;10.092;2023-02-04T14:04:11;6.10;99.90
12957;DHT22;6543;48.836;10.092;2023-02-04T14:06:38;6.10;99.90
12957;DHT22;6543;48.836;10.092;2023-02-04T14:09:08;6.10;99.90
12957;DHT22;6543;48.836;10.092;2023-02-04T14:11:35;6.00;99.90
12957;DHT22;6543;48.836;10.092;2023-02-04T14:14:03;5.90;99.90
12957;DHT22;6543;48.836;10.092;2023-02-04T14:16:30;5.90;99.90
12957;DHT22;6543;48.836;10.092;2023-02-04T14:18:57;5.90;99.90
12957;DHT22;6543;48.836;10.092;2023-02-04T14:21:24;5.80;99.90
12957;DHT22;6543;48.836;10.092;2023-02-04T14:23:51;5.90;99.90
12957;DHT22;6543;48.836;10.092;2023-02-04T14:26:18;6.10;99.90
12957;DHT22;6543;48.836;10.092;2023-02-04T14:28:44;6.20;99.90
12957;DHT22;6543;48.836;10.092;2023-02-04T14:31:13;6.30;99.90
12957;DHT22;6543;48.836;10.092;2023-02-04T14:33:39;6.40;99.90
12957;DHT22;6543;48.836;10.092;2023-02-04T14:36:06;6.40;99.90
12957;DHT22;6543;48.836;10.092;2023-02-04T14:38:33;6.40;99.90
12957;DHT22;6543;48.836;10.092;2023-02-04T14:41:00;6.30;99.90
12957;DHT22;6543;48.836;10.092;2023-02-04T14:43:27;6.20;99.90
12957;DHT22;6543;48.836;10.092;2023-02-04T14:45:54;6.20;99.90
12957;DHT22;6543;48.836;10.092;2023-02-04T14:48:22;6.00;99.90
12957;DHT22;6543;48.836;10.092;2023-02-04T14:50:49;6.00;99.90
12957;DHT22;6543;48.836;10.092;2023-02-04T14:53:16;6.10;99.90
12957;DHT22;6543;48.836;10.092;2023-02-04T14:55:42;6.00;99.90
12957;DHT22;6543;48.836;10.092;2023-02-04T14:58:09;5.90;99.90
12957;DHT22;6543;48.836;10.092;2023-02-04T15:00:36;5.90;99.90
12957;DHT22;6543;48.836;10.092;2023-02-04T15:03:03;5.80;99.90
12957;DHT22;6543;48.836;10.092;2023-02-04T15:05:31;5.90;99.90
12957;DHT22;6543;48.836;10.092;2023-02-04T15:07:58;5.90;99.90
12957;DHT22;6543;48.836;10.092;2023-02-04T15:10:25;5.80;99.90
12957;DHT22;6543;48.836;10.092;2023-02-04T15:12:52;5.80;99.90
12957;DHT22;6543;48.836;10.092;2023-02-04T15:15:19;5.90;99.90
12957;DHT22;6543;48.836;10.092;2023-02-04T15:17:46;5.80;99.90
12957;DHT22;6543;48.836;10.092;2023-02-04T15:20:15;5.70;99.90
12957;DHT22;6543;48.836;10.092;2023-02-04T15:22:43;5.80;99.90
12957;DHT22;6543;48.836;10.092;2023-02-04T15:25:12;5.80;99.90
12957;DHT22;6543;48.836;10.092;2023-02-04T15:27:38;5.80;99.90
12957;DHT22;6543;48.836;10.092;2023-02-04T15:30:06;5.80;99.90
12957;DHT22;6543;48.836;10.092;2023-02-04T15:32:32;5.80;99.90
12957;DHT22;6543;48.836;10.092;2023-02-04T15:34:59;5.80;99.90
12957;DHT22;6543;48.836;10.092;2023-02-04T15:37:26;5.80;99.90
12957;DHT22;6543;48.836;10.092;2023-02-04T15:39:54;5.70;99.90
12957;DHT22;6543;48.836;10.092;2023-02-04T15:42:21;5.60;99.90
12957;DHT22;6543;48.836;10.092;2023-02-04T15:44:48;5.50;99.90
12957;DHT22;6543;48.836;10.092;2023-02-04T15:47:15;5.50;99.90
12957;DHT22;6543;48.836;10.092;2023-02-04T15:49:44;5.50;99.90
12957;DHT22;6543;48.836;10.092;2023-02-04T15:52:11;5.30;99.90